sensor_id;sensor_type;location;lat;lon;timestamp;temperature;humidity
66710;DHT22;53624;0.000;0.000;2022-10-03T00:00:07;17.50;99.90
66710;DHT22;53624;0.000;0.000;2022-10-03T00:05:22;17.50;99.90
66710;DHT22;53624;0.000;0.000;2022-10-03T00:08:00;17.50;99.90
66710;DHT22;53624;0.000;0.000;2022-10-03T00:10:32;17.50;99.90
66710;DHT22;53624;0.000;0.000;2022-10-03T00:13:06;17.50;99.90
66710;DHT22;53624;0.000;0.000;2022-10-03T00:15:38;17.50;99.90
66710;DHT22;53624;0.000;0.000;2022-10-03T00:18:13;17.50;99.90
66710;DHT22;53624;0.000;0.000;2022-10-03T00:20:50;17.50;99.90
66710;DHT22;53624;0.000;0.000;2022-10-03T00:23:21;17.50;99.90
66710;DHT22;53624;0.000;0.000;2022-10-03T00:25:52;17.50;99.90
66710;DHT22;53624;0.000;0.000;2022-10-03T00:28:24;17.50;99.90
66710;DHT22;53624;0.000;0.000;2022-10-03T00:31:02;17.50;99.90
66710;DHT22;53624;0.000;0.000;2022-10-03T00:33:36;17.50;99.90
66710;DHT22;53624;0.000;0.000;2022-10-03T00:36:10;17.50;99.90
66710;DHT22;53624;0.000;0.000;2022-10-03T00:38:52;17.50;99.90
66710;DHT22;53624;0.000;0.000;2022-10-03T00:52:29;17.40;99.90
66710;DHT22;53624;0.000;0.000;2022-10-03T00:55:07;17.40;99.90
66710;DHT22;53624;0.000;0.000;2022-10-03T00:57:40;17.50;99.90
66710;DHT22;53624;0.000;0.000;2022-10-03T01:00:15;17.40;99.90
66710;DHT22;53624;0.000;0.000;2022-10-03T01:02:57;17.50;99.90
66710;DHT22;53624;0.000;0.000;2022-10-03T01:05:30;17.40;99.90
66710;DHT22;53624;0.000;0.000;2022-10-03T01:08:22;17.40;99.90
66710;DHT22;53624;0.000;0.000;2022-10-03T01:10:58;17.40;99.90
66710;DHT22;53624;0.000;0.000;2022-10-03T01:13:31;17.50;99.90
66710;DHT22;53624;0.000;0.000;2022-10-03T01:16:04;17.40;99.90
66710;DHT22;53624;0.000;0.000;2022-10-03T01:18:36;17.40;99.90
66710;DHT22;53624;0.000;0.000;2022-10-03T01:21:08;17.40;99.90
66710;DHT22;53624;0.000;0.000;2022-10-03T01:23:46;17.40;99.90
66710;DHT22;53624;0.000;0.000;2022-10-03T01:26:25;17.40;99.90
66710;DHT22;53624;0.000;0.000;2022-10-03T01:28:59;17.40;99.90
66710;DHT22;53624;0.000;0.000;2022-10-03T01:31:48;17.40;99.90
66710;DHT22;53624;0.000;0.000;2022-10-03T01:34:19;17.40;99.90
66710;DHT22;53624;0.000;0.000;2022-10-03T01:36:51;17.40;99.90
66710;DHT22;53624;0.000;0.000;2022-10-03T01:39:26;17.40;99.90
66710;DHT22;53624;0.000;0.000;2022-10-03T01:41:56;17.40;99.90
66710;DHT22;53624;0.000;0.000;2022-10-03T01:44:28;17.40;99.90
66710;DHT22;53624;0.000;0.000;2022-10-03T01:46:57;17.40;99.90
66710;DHT22;53624;0.000;0.000;2022-10-03T01:49:33;17.40;99.90
66710;DHT22;53624;0.000;0.000;2022-10-03T01:52:05;17.40;99.90
66710;DHT22;53624;0.000;0.000;2022-10-03T01:54:38;17.40;99.90
66710;DHT22;53624;0.000;0.000;2022-10-03T01:57:10;17.40;99.90
66710;DHT22;53624;0.000;0.000;2022-10-03T01:59:41;17.40;99.90
66710;DHT22;53624;0.000;0.000;2022-10-03T02:02:16;17.40;99.90
66710;DHT22;53624;0.000;0.000;2022-10-03T02:04:47;17.40;99.90
66710;DHT22;53624;0.000;0.000;2022-10-03T02:07:20;17.40;99.90
66710;DHT22;53624;0.000;0.000;2022-10-03T02:09:56;17.40;99.90
66710;DHT22;53624;0.000;0.000;2022-10-03T02:12:25;17.40;99.90
66710;DHT22;53624;0.000;0.000;2022-10-03T02:14:57;17.40;99.90
66710;DHT22;53624;0.000;0.000;2022-10-03T02:17:29;17.40;99.90
66710;DHT22;53624;0.000;0.000;2022-10-03T02:20:04;17.40;99.90
66710;DHT22;53624;0.000;0.000;2022-10-03T02:22:35;17.40;99.90
66710;DHT22;53624;0.000;0.000;2022-10-03T02:25:08;17.40;99.90
66710;DHT22;53624;0.000;0.000;2022-10-03T02:27:42;17.40;99.90
66710;DHT22;53624;0.000;0.000;2022-10-03T02:30:18;17.40;99.90
66710;DHT22;53624;0.000;0.000;2022-10-03T02:33:01;17.40;99.90
66710;DHT22;53624;0.000;0.000;2022-10-03T02:35:44;17.40;99.90
66710;DHT22;53624;0.000;0.000;2022-10-03T02:38:23;17.40;99.90
66710;DHT22;53624;0.000;0.000;2022-10-03T02:43:53;17.40;99.90
66710;DHT22;53624;0.000;0.000;2022-10-03T02:46:38;17.40;99.90
66710;DHT22;53624;0.000;0.000;2022-10-03T02:49:16;17.40;99.90
66710;DHT22;53624;0.000;0.000;2022-10-03T02:52:03;17.40;99.90
66710;DHT22;53624;0.000;0.000;2022-10-03T02:54:52;17.40;99.90
66710;DHT22;53624;0.000;0.000;2022-10-03T03:00:11;17.40;99.90
66710;DHT22;53624;0.000;0.000;2022-10-03T03:08:31;17.30;99.90
66710;DHT22;53624;0.000;0.000;2022-10-03T03:14:04;17.30;99.90
66710;DHT22;53624;0.000;0.000;2022-10-03T03:16:48;17.40;99.90
66710;DHT22;53624;0.000;0.000;2022-10-03T03:19:25;17.30;99.90
66710;DHT22;53624;0.000;0.000;2022-10-03T03:21:59;17.30;99.90
66710;DHT22;53624;0.000;0.000;2022-10-03T03:24:41;17.30;99.90
66710;DHT22;53624;0.000;0.000;2022-10-03T03:27:16;17.30;99.90
66710;DHT22;53624;0.000;0.000;2022-10-03T03:29:49;17.30;99.90
66710;DHT22;53624;0.000;0.000;2022-10-03T03:32:21;17.30;99.90
66710;DHT22;53624;0.000;0.000;2022-10-03T03:34:55;17.30;99.90
66710;DHT22;53624;0.000;0.000;2022-10-03T03:37:26;17.30;99.90
66710;DHT22;53624;0.000;0.000;2022-10-03T03:40:01;17.30;99.90
66710;DHT22;53624;0.000;0.000;2022-10-03T03:42:38;17.30;99.90
66710;DHT22;53624;0.000;0.000;2022-10-03T03:45:14;17.30;99.90
66710;DHT22;53624;0.000;0.000;2022-10-03T03:47:51;17.30;99.90
66710;DHT22;53624;0.000;0.000;2022-10-03T03:50:28;17.30;99.90
66710;DHT22;53624;0.000;0.000;2022-10-03T03:53:02;17.20;99.90
66710;DHT22;53624;0.000;0.000;2022-10-03T03:55:36;17.20;99.90
66710;DHT22;53624;0.000;0.000;2022-10-03T03:58:09;17.20;99.90
66710;DHT22;53624;0.000;0.000;2022-10-03T04:00:45;17.20;99.90
66710;DHT22;53624;0.000;0.000;2022-10-03T04:03:19;17.20;99.90
66710;DHT22;53624;0.000;0.000;2022-10-03T04:06:00;17.20;99.90
66710;DHT22;53624;0.000;0.000;2022-10-03T04:11:20;17.20;99.90
66710;DHT22;53624;0.000;0.000;2022-10-03T04:13:59;17.20;99.90
66710;DHT22;53624;0.000;0.000;2022-10-03T04:16:36;17.20;99.90
66710;DHT22;53624;0.000;0.000;2022-10-03T04:19:27;17.20;99.90
66710;DHT22;53624;0.000;0.000;2022-10-03T04:22:00;17.20;99.90
66710;DHT22;53624;0.000;0.000;2022-10-03T04:24:33;17.20;99.90
66710;DHT22;53624;0.000;0.000;2022-10-03T04:27:07;17.20;99.90
66710;DHT22;53624;0.000;0.000;2022-10-03T04:29:41;17.20;99.90
66710;DHT22;53624;0.000;0.000;2022-10-03T04:32:14;17.20;99.90
66710;DHT22;53624;0.000;0.000;2022-10-03T04:34:49;17.20;99.90
66710;DHT22;53624;0.000;0.000;2022-10-03T04:37:20;17.20;99.90
66710;DHT22;53624;0.000;0.000;2022-10-03T04:39:53;17.20;99.90
66710;DHT22;53624;0.000;0.000;2022-10-03T04:42:28;17.20;99.90
66710;DHT22;53624;0.000;0.000;2022-10-03T04:45:03;17.20;99.90
66710;DHT22;53624;0.000;0.000;2022-10-03T04:47:34;17.20;99.90
66710;DHT22;53624;0.000;0.000;2022-10-03T04:50:14;17.10;99.90
66710;DHT22;53624;0.000;0.000;2022-10-03T04:52:46;17.10;99.90
66710;DHT22;53624;0.000;0.000;2022-10-03T04:55:17;17.10;99.90
66710;DHT22;53624;0.000;0.000;2022-10-03T04:57:49;17.10;99.90
66710;DHT22;53624;0.000;0.000;2022-10-03T05:00:19;17.10;99.90
66710;DHT22;53624;0.000;0.000;2022-10-03T05:02:49;17.10;99.90
66710;DHT22;53624;0.000;0.000;2022-10-03T05:08:16;17.10;99.90
66710;DHT22;53624;0.000;0.000;2022-10-03T05:10:56;17.10;99.90
66710;DHT22;53624;0.000;0.000;2022-10-03T05:13:33;17.10;99.90
66710;DHT22;53624;0.000;0.000;2022-10-03T05:16:06;17.10;99.90
66710;DHT22;53624;0.000;0.000;2022-10-03T05:18:37;17.10;99.90
66710;DHT22;53624;0.000;0.000;2022-10-03T05:21:08;17.10;99.90
66710;DHT22;53624;0.000;0.000;2022-10-03T05:23:44;17.10;99.90
66710;DHT22;53624;0.000;0.000;2022-10-03T05:26:16;17.10;99.90
66710;DHT22;53624;0.000;0.000;2022-10-03T05:28:47;17.10;99.90
66710;DHT22;53624;0.000;0.000;2022-10-03T05:31:25;17.10;99.90
66710;DHT22;53624;0.000;0.000;2022-10-03T05:33:57;17.10;99.90
66710;DHT22;53624;0.000;0.000;2022-10-03T05:36:29;17.10;99.90
66710;DHT22;53624;0.000;0.000;2022-10-03T05:41:49;17.10;99.90
66710;DHT22;53624;0.000;0.000;2022-10-03T05:44:20;17.10;99.90
66710;DHT22;53624;0.000;0.000;2022-10-03T05:46:57;17.10;99.90
66710;DHT22;53624;0.000;0.000;2022-10-03T05:49:34;17.00;99.90
66710;DHT22;53624;0.000;0.000;2022-10-03T05:52:13;17.00;99.90
66710;DHT22;53624;0.000;0.000;2022-10-03T05:54:51;17.00;99.90
66710;DHT22;53624;0.000;0.000;2022-10-03T05:57:44;17.00;99.90
66710;DHT22;53624;0.000;0.000;2022-10-03T06:00:21;17.00;99.90
66710;DHT22;53624;0.000;0.000;2022-10-03T06:05:39;17.00;99.90
66710;DHT22;53624;0.000;0.000;2022-10-03T06:10:54;17.00;99.90
66710;DHT22;53624;0.000;0.000;2022-10-03T06:13:29;17.10;99.90
66710;DHT22;53624;0.000;0.000;2022-10-03T06:16:07;17.10;99.90
66710;DHT22;53624;0.000;0.000;2022-10-03T06:21:51;17.00;99.90
66710;DHT22;53624;0.000;0.000;2022-10-03T06:24:35;17.00;99.90
66710;DHT22;53624;0.000;0.000;2022-10-03T06:27:14;17.10;99.90
66710;DHT22;53624;0.000;0.000;2022-10-03T06:35:38;17.10;99.90
66710;DHT22;53624;0.000;0.000;2022-10-03T06:43:51;17.10;99.90
66710;DHT22;53624;0.000;0.000;2022-10-03T06:49:21;17.10;99.90
66710;DHT22;53624;0.000;0.000;2022-10-03T06:52:01;17.10;99.90
66710;DHT22;53624;0.000;0.000;2022-10-03T06:54:49;17.10;99.90
66710;DHT22;53624;0.000;0.000;2022-10-03T06:57:30;17.20;99.90
66710;DHT22;53624;0.000;0.000;2022-10-03T07:00:07;17.20;99.90
66710;DHT22;53624;0.000;0.000;2022-10-03T07:08:21;17.20;99.90
66710;DHT22;53624;0.000;0.000;2022-10-03T07:10:59;17.30;99.90
66710;DHT22;53624;0.000;0.000;2022-10-03T07:13:37;17.30;99.90
66710;DHT22;53624;0.000;0.000;2022-10-03T07:16:11;17.30;99.90
66710;DHT22;53624;0.000;0.000;2022-10-03T07:24:16;17.30;99.90
66710;DHT22;53624;0.000;0.000;2022-10-03T07:27:01;17.30;99.90
66710;DHT22;53624;0.000;0.000;2022-10-03T07:29:36;17.40;99.90
66710;DHT22;53624;0.000;0.000;2022-10-03T07:35:02;17.40;99.90
66710;DHT22;53624;0.000;0.000;2022-10-03T07:37:43;17.40;99.90
66710;DHT22;53624;0.000;0.000;2022-10-03T07:40:42;17.50;99.90
66710;DHT22;53624;0.000;0.000;2022-10-03T07:43:23;17.40;99.90
66710;DHT22;53624;0.000;0.000;2022-10-03T07:48:58;17.40;99.90
66710;DHT22;53624;0.000;0.000;2022-10-03T07:51:33;17.50;99.90
66710;DHT22;53624;0.000;0.000;2022-10-03T07:54:17;17.50;99.90
66710;DHT22;53624;0.000;0.000;2022-10-03T07:56:54;17.50;99.90
66710;DHT22;53624;0.000;0.000;2022-10-03T07:59:36;17.50;99.90
66710;DHT22;53624;0.000;0.000;2022-10-03T08:02:14;17.50;99.90
66710;DHT22;53624;0.000;0.000;2022-10-03T08:04:54;17.50;99.90
66710;DHT22;53624;0.000;0.000;2022-10-03T08:07:32;17.50;99.90
66710;DHT22;53624;0.000;0.000;2022-10-03T08:10:07;17.50;99.90
66710;DHT22;53624;0.000;0.000;2022-10-03T08:12:48;17.60;99.90
66710;DHT22;53624;0.000;0.000;2022-10-03T08:15:21;17.60;99.90
66710;DHT22;53624;0.000;0.000;2022-10-03T08:23:35;17.60;99.90
66710;DHT22;53624;0.000;0.000;2022-10-03T08:26:11;17.60;99.90
66710;DHT22;53624;0.000;0.000;2022-10-03T08:28:48;17.60;99.90
66710;DHT22;53624;0.000;0.000;2022-10-03T08:31:31;17.70;99.90
66710;DHT22;53624;0.000;0.000;2022-10-03T08:37:00;17.70;99.90
66710;DHT22;53624;0.000;0.000;2022-10-03T08:42:33;17.80;99.90
66710;DHT22;53624;0.000;0.000;2022-10-03T08:45:21;17.80;99.90
66710;DHT22;53624;0.000;0.000;2022-10-03T08:48:02;18.00;99.90
66710;DHT22;53624;0.000;0.000;2022-10-03T08:50:39;18.10;99.90
66710;DHT22;53624;0.000;0.000;2022-10-03T08:53:16;18.10;99.90
66710;DHT22;53624;0.000;0.000;2022-10-03T08:55:51;18.20;99.90
66710;DHT22;53624;0.000;0.000;2022-10-03T08:58:26;18.30;99.90
66710;DHT22;53624;0.000;0.000;2022-10-03T09:01:04;18.60;99.90
66710;DHT22;53624;0.000;0.000;2022-10-03T09:06:41;19.30;99.40
66710;DHT22;53624;0.000;0.000;2022-10-03T09:09:15;19.70;98.60
66710;DHT22;53624;0.000;0.000;2022-10-03T09:11:54;20.00;98.00
66710;DHT22;53624;0.000;0.000;2022-10-03T09:14:40;20.30;97.50
66710;DHT22;53624;0.000;0.000;2022-10-03T09:17:21;20.40;97.30
66710;DHT22;53624;0.000;0.000;2022-10-03T09:20:07;20.20;97.60
66710;DHT22;53624;0.000;0.000;2022-10-03T09:22:48;20.00;98.00
66710;DHT22;53624;0.000;0.000;2022-10-03T09:25:24;19.90;98.30
66710;DHT22;53624;0.000;0.000;2022-10-03T09:30:43;19.80;98.70
66710;DHT22;53624;0.000;0.000;2022-10-03T09:33:25;19.70;98.80
66710;DHT22;53624;0.000;0.000;2022-10-03T09:36:14;19.70;98.80
66710;DHT22;53624;0.000;0.000;2022-10-03T09:41:49;19.80;98.80
66710;DHT22;53624;0.000;0.000;2022-10-03T09:44:32;19.80;98.80
66710;DHT22;53624;0.000;0.000;2022-10-03T09:47:21;19.80;98.80
66710;DHT22;53624;0.000;0.000;2022-10-03T09:50:12;19.80;98.80
66710;DHT22;53624;0.000;0.000;2022-10-03T09:52:51;20.00;98.70
66710;DHT22;53624;0.000;0.000;2022-10-03T09:55:34;20.00;98.50
66710;DHT22;53624;0.000;0.000;2022-10-03T09:58:09;20.10;98.50
66710;DHT22;53624;0.000;0.000;2022-10-03T10:12:08;20.30;98.40
66710;DHT22;53624;0.000;0.000;2022-10-03T10:14:41;20.30;98.30
66710;DHT22;53624;0.000;0.000;2022-10-03T10:20:01;20.50;98.10
66710;DHT22;53624;0.000;0.000;2022-10-03T10:25:41;20.50;98.00
66710;DHT22;53624;0.000;0.000;2022-10-03T10:28:35;20.60;97.90
66710;DHT22;53624;0.000;0.000;2022-10-03T10:31:24;20.70;97.80
66710;DHT22;53624;0.000;0.000;2022-10-03T10:40:00;21.10;97.30
66710;DHT22;53624;0.000;0.000;2022-10-03T10:45:41;21.50;96.90
66710;DHT22;53624;0.000;0.000;2022-10-03T10:54:15;21.70;97.10
66710;DHT22;53624;0.000;0.000;2022-10-03T10:57:00;21.90;96.50
66710;DHT22;53624;0.000;0.000;2022-10-03T10:59:35;22.10;96.30
66710;DHT22;53624;0.000;0.000;2022-10-03T11:02:32;21.90;96.40
66710;DHT22;53624;0.000;0.000;2022-10-03T11:11:06;22.20;96.30
66710;DHT22;53624;0.000;0.000;2022-10-03T11:13:55;22.30;96.30
66710;DHT22;53624;0.000;0.000;2022-10-03T11:19:40;22.20;96.50
66710;DHT22;53624;0.000;0.000;2022-10-03T11:22:20;22.10;96.60
66710;DHT22;53624;0.000;0.000;2022-10-03T11:27:51;22.00;96.90
66710;DHT22;53624;0.000;0.000;2022-10-03T11:36:08;21.80;97.20
66710;DHT22;53624;0.000;0.000;2022-10-03T11:38:39;21.80;97.30
66710;DHT22;53624;0.000;0.000;2022-10-03T11:41:14;21.70;97.40
66710;DHT22;53624;0.000;0.000;2022-10-03T11:44:05;21.70;97.40
66710;DHT22;53624;0.000;0.000;2022-10-03T11:46:52;21.80;97.40
66710;DHT22;53624;0.000;0.000;2022-10-03T11:49:42;21.90;97.20
66710;DHT22;53624;0.000;0.000;2022-10-03T11:52:20;22.10;96.90
66710;DHT22;53624;0.000;0.000;2022-10-03T11:54:57;22.00;96.90
66710;DHT22;53624;0.000;0.000;2022-10-03T11:57:29;22.00;97.00
66710;DHT22;53624;0.000;0.000;2022-10-03T12:00:00;21.90;97.20
66710;DHT22;53624;0.000;0.000;2022-10-03T12:05:22;21.80;97.40
66710;DHT22;53624;0.000;0.000;2022-10-03T12:07:54;21.80;97.50
66710;DHT22;53624;0.000;0.000;2022-10-03T12:10:58;21.80;97.50
66710;DHT22;53624;0.000;0.000;2022-10-03T12:13:33;21.70;97.60
66710;DHT22;53624;0.000;0.000;2022-10-03T12:16:05;21.70;97.70
66710;DHT22;53624;0.000;0.000;2022-10-03T12:18:48;21.60;97.80
66710;DHT22;53624;0.000;0.000;2022-10-03T12:21:17;21.60;97.90
66710;DHT22;53624;0.000;0.000;2022-10-03T12:23:53;21.60;97.90
66710;DHT22;53624;0.000;0.000;2022-10-03T12:26:25;21.60;97.90
66710;DHT22;53624;0.000;0.000;2022-10-03T12:28:54;21.60;98.00
66710;DHT22;53624;0.000;0.000;2022-10-03T12:31:24;21.60;97.90
66710;DHT22;53624;0.000;0.000;2022-10-03T12:33:53;21.60;97.90
66710;DHT22;53624;0.000;0.000;2022-10-03T12:36:24;21.60;98.10
66710;DHT22;53624;0.000;0.000;2022-10-03T12:38:57;21.50;98.10
66710;DHT22;53624;0.000;0.000;2022-10-03T12:41:36;21.50;98.20
66710;DHT22;53624;0.000;0.000;2022-10-03T12:44:11;21.40;98.20
66710;DHT22;53624;0.000;0.000;2022-10-03T12:46:44;21.40;98.30
66710;DHT22;53624;0.000;0.000;2022-10-03T12:49:14;21.40;98.40
66710;DHT22;53624;0.000;0.000;2022-10-03T12:51:48;21.30;98.40
66710;DHT22;53624;0.000;0.000;2022-10-03T12:54:29;21.30;98.50
66710;DHT22;53624;0.000;0.000;2022-10-03T12:57:05;21.30;98.50
66710;DHT22;53624;0.000;0.000;2022-10-03T12:59:37;21.30;98.60
66710;DHT22;53624;0.000;0.000;2022-10-03T13:04:54;21.20;98.80
66710;DHT22;53624;0.000;0.000;2022-10-03T13:07:26;21.20;98.80
66710;DHT22;53624;0.000;0.000;2022-10-03T13:10:02;21.20;99.10
66710;DHT22;53624;0.000;0.000;2022-10-03T13:12:35;21.20;98.80
66710;DHT22;53624;0.000;0.000;2022-10-03T13:17:48;21.20;98.80
66710;DHT22;53624;0.000;0.000;2022-10-03T13:20:21;21.20;98.90
66710;DHT22;53624;0.000;0.000;2022-10-03T13:22:51;21.10;98.90
66710;DHT22;53624;0.000;0.000;2022-10-03T13:25:23;21.10;98.90
66710;DHT22;53624;0.000;0.000;2022-10-03T13:27:57;21.10;98.90
66710;DHT22;53624;0.000;0.000;2022-10-03T13:30:27;21.10;99.00
66710;DHT22;53624;0.000;0.000;2022-10-03T13:32:56;21.10;99.00
66710;DHT22;53624;0.000;0.000;2022-10-03T13:35:28;21.10;99.00
66710;DHT22;53624;0.000;0.000;2022-10-03T13:41:07;21.10;99.00
66710;DHT22;53624;0.000;0.000;2022-10-03T13:43:37;21.10;99.00
66710;DHT22;53624;0.000;0.000;2022-10-03T13:46:09;21.10;99.00
66710;DHT22;53624;0.000;0.000;2022-10-03T13:48:38;21.10;99.10
66710;DHT22;53624;0.000;0.000;2022-10-03T13:51:10;21.10;99.10
66710;DHT22;53624;0.000;0.000;2022-10-03T13:53:51;21.00;99.10
66710;DHT22;53624;0.000;0.000;2022-10-03T13:56:26;21.00;99.20
66710;DHT22;53624;0.000;0.000;2022-10-03T13:58:58;21.00;99.30
66710;DHT22;53624;0.000;0.000;2022-10-03T14:01:31;20.90;99.30
66710;DHT22;53624;0.000;0.000;2022-10-03T14:06:55;20.90;99.40
66710;DHT22;53624;0.000;0.000;2022-10-03T14:09:33;20.90;99.40
66710;DHT22;53624;0.000;0.000;2022-10-03T14:12:07;20.90;99.40
66710;DHT22;53624;0.000;0.000;2022-10-03T14:17:22;20.90;99.50
66710;DHT22;53624;0.000;0.000;2022-10-03T14:19:59;20.90;99.50
66710;DHT22;53624;0.000;0.000;2022-10-03T14:22:34;20.90;99.50
66710;DHT22;53624;0.000;0.000;2022-10-03T14:25:11;20.80;99.60
66710;DHT22;53624;0.000;0.000;2022-10-03T14:30:30;20.80;99.70
66710;DHT22;53624;0.000;0.000;2022-10-03T14:33:02;20.80;99.70
66710;DHT22;53624;0.000;0.000;2022-10-03T14:35:37;20.80;99.80
66710;DHT22;53624;0.000;0.000;2022-10-03T14:38:14;20.80;99.80
66710;DHT22;53624;0.000;0.000;2022-10-03T14:40:46;20.80;99.80
66710;DHT22;53624;0.000;0.000;2022-10-03T14:43:26;20.80;99.90
66710;DHT22;53624;0.000;0.000;2022-10-03T14:45:59;20.70;99.90
66710;DHT22;53624;0.000;0.000;2022-10-03T14:48:27;20.70;99.90
66710;DHT22;53624;0.000;0.000;2022-10-03T14:50:57;20.70;99.90
66710;DHT22;53624;0.000;0.000;2022-10-03T14:53:30;20.70;99.90
66710;DHT22;53624;0.000;0.000;2022-10-03T14:55:58;20.70;99.90
66710;DHT22;53624;0.000;0.000;2022-10-03T14:58:27;20.70;99.90
66710;DHT22;53624;0.000;0.000;2022-10-03T15:01:03;20.60;99.90
66710;DHT22;53624;0.000;0.000;2022-10-03T15:03:37;20.60;99.90
66710;DHT22;53624;0.000;0.000;2022-10-03T15:06:18;20.60;99.90
66710;DHT22;53624;0.000;0.000;2022-10-03T15:08:47;20.60;99.90
66710;DHT22;53624;0.000;0.000;2022-10-03T15:11:16;20.60;99.90
66710;DHT22;53624;0.000;0.000;2022-10-03T15:13:50;20.60;99.90
66710;DHT22;53624;0.000;0.000;2022-10-03T15:16:21;20.60;99.90
66710;DHT22;53624;0.000;0.000;2022-10-03T15:18:50;20.50;99.90
66710;DHT22;53624;0.000;0.000;2022-10-03T15:21:19;20.50;99.90
66710;DHT22;53624;0.000;0.000;2022-10-03T15:23:48;20.60;99.90
66710;DHT22;53624;0.000;0.000;2022-10-03T15:26:19;20.50;99.90
66710;DHT22;53624;0.000;0.000;2022-10-03T15:28:49;20.60;99.90
66710;DHT22;53624;0.000;0.000;2022-10-03T15:31:21;20.50;99.90
66710;DHT22;53624;0.000;0.000;2022-10-03T15:33:52;20.50;99.90
66710;DHT22;53624;0.000;0.000;2022-10-03T15:36:22;20.50;99.90
66710;DHT22;53624;0.000;0.000;2022-10-03T15:38:51;20.50;99.90
66710;DHT22;53624;0.000;0.000;2022-10-03T15:41:20;20.50;99.90
66710;DHT22;53624;0.000;0.000;2022-10-03T15:43:50;20.40;99.90
66710;DHT22;53624;0.000;0.000;2022-10-03T15:46:25;20.40;99.90
66710;DHT22;53624;0.000;0.000;2022-10-03T15:48:54;20.40;99.90
66710;DHT22;53624;0.000;0.000;2022-10-03T15:51:22;20.40;99.90
66710;DHT22;53624;0.000;0.000;2022-10-03T15:53:51;20.40;99.90
66710;DHT22;53624;0.000;0.000;2022-10-03T15:56:21;20.30;99.90
66710;DHT22;53624;0.000;0.000;2022-10-03T15:58:51;20.40;99.90
66710;DHT22;53624;0.000;0.000;2022-10-03T16:01:22;20.30;99.90
66710;DHT22;53624;0.000;0.000;2022-10-03T16:03:52;20.30;99.90
66710;DHT22;53624;0.000;0.000;2022-10-03T16:06:21;20.30;99.90
66710;DHT22;53624;0.000;0.000;2022-10-03T16:08:55;20.30;99.90
66710;DHT22;53624;0.000;0.000;2022-10-03T16:11:25;20.30;99.90
66710;DHT22;53624;0.000;0.000;2022-10-03T16:13:57;20.30;99.90
66710;DHT22;53624;0.000;0.000;2022-10-03T16:16:30;20.20;99.90
66710;DHT22;53624;0.000;0.000;2022-10-03T16:19:18;20.20;99.90
66710;DHT22;53624;0.000;0.000;2022-10-03T16:21:47;20.20;99.90
66710;DHT22;53624;0.000;0.000;2022-10-03T16:24:17;20.10;99.90
66710;DHT22;53624;0.000;0.000;2022-10-03T16:26:49;20.10;99.90
66710;DHT22;53624;0.000;0.000;2022-10-03T16:29:18;20.10;99.90
66710;DHT22;53624;0.000;0.000;2022-10-03T16:31:50;20.00;99.90
66710;DHT22;53624;0.000;0.000;2022-10-03T16:34:20;20.00;99.90
66710;DHT22;53624;0.000;0.000;2022-10-03T16:36:50;20.00;99.90
66710;DHT22;53624;0.000;0.000;2022-10-03T16:39:19;20.00;99.90
66710;DHT22;53624;0.000;0.000;2022-10-03T16:41:48;20.00;99.90
66710;DHT22;53624;0.000;0.000;2022-10-03T16:44:17;19.90;99.90
66710;DHT22;53624;0.000;0.000;2022-10-03T16:46:45;19.90;99.90
66710;DHT22;53624;0.000;0.000;2022-10-03T16:49:26;19.90;99.90
66710;DHT22;53624;0.000;0.000;2022-10-03T16:52:12;19.90;99.90
66710;DHT22;53624;0.000;0.000;2022-10-03T16:54:41;19.80;99.90
66710;DHT22;53624;0.000;0.000;2022-10-03T16:57:10;19.80;99.90
66710;DHT22;53624;0.000;0.000;2022-10-03T16:59:39;19.80;99.90
66710;DHT22;53624;0.000;0.000;2022-10-03T17:02:09;19.80;99.90
66710;DHT22;53624;0.000;0.000;2022-10-03T17:04:40;19.70;99.90
66710;DHT22;53624;0.000;0.000;2022-10-03T17:07:12;19.70;99.90
66710;DHT22;53624;0.000;0.000;2022-10-03T17:09:41;19.70;99.90
66710;DHT22;53624;0.000;0.000;2022-10-03T17:12:13;19.70;99.90
66710;DHT22;53624;0.000;0.000;2022-10-03T17:14:42;19.70;99.90
66710;DHT22;53624;0.000;0.000;2022-10-03T17:17:14;19.70;99.90
66710;DHT22;53624;0.000;0.000;2022-10-03T17:19:49;19.60;99.90
66710;DHT22;53624;0.000;0.000;2022-10-03T17:22:21;19.60;99.90
66710;DHT22;53624;0.000;0.000;2022-10-03T17:24:50;19.60;99.90
66710;DHT22;53624;0.000;0.000;2022-10-03T17:27:22;19.60;99.90
66710;DHT22;53624;0.000;0.000;2022-10-03T17:29:54;19.50;99.90
66710;DHT22;53624;0.000;0.000;2022-10-03T17:32:24;19.50;99.90
66710;DHT22;53624;0.000;0.000;2022-10-03T17:34:59;19.50;99.90
66710;DHT22;53624;0.000;0.000;2022-10-03T17:37:45;19.50;99.90
66710;DHT22;53624;0.000;0.000;2022-10-03T17:40:17;19.50;99.90
66710;DHT22;53624;0.000;0.000;2022-10-03T17:42:48;19.40;99.90
66710;DHT22;53624;0.000;0.000;2022-10-03T17:45:24;19.40;99.90
66710;DHT22;53624;0.000;0.000;2022-10-03T17:47:55;19.40;99.90
66710;DHT22;53624;0.000;0.000;2022-10-03T17:50:27;19.40;99.90
66710;DHT22;53624;0.000;0.000;2022-10-03T17:52:56;19.40;99.90
66710;DHT22;53624;0.000;0.000;2022-10-03T17:55:25;19.40;99.90
66710;DHT22;53624;0.000;0.000;2022-10-03T17:57:55;19.30;99.90
66710;DHT22;53624;0.000;0.000;2022-10-03T18:00:26;19.30;99.90
66710;DHT22;53624;0.000;0.000;2022-10-03T18:02:56;19.30;99.90
66710;DHT22;53624;0.000;0.000;2022-10-03T18:05:27;19.30;99.90
66710;DHT22;53624;0.000;0.000;2022-10-03T18:07:59;19.30;99.90
66710;DHT22;53624;0.000;0.000;2022-10-03T18:10:29;19.30;99.90
66710;DHT22;53624;0.000;0.000;2022-10-03T18:12:59;19.20;99.90
66710;DHT22;53624;0.000;0.000;2022-10-03T18:18:40;19.20;99.90
66710;DHT22;53624;0.000;0.000;2022-10-03T18:21:14;19.20;99.90
66710;DHT22;53624;0.000;0.000;2022-10-03T18:23:46;19.20;99.90
66710;DHT22;53624;0.000;0.000;2022-10-03T18:26:21;19.20;99.90
66710;DHT22;53624;0.000;0.000;2022-10-03T18:28:51;19.10;99.90
66710;DHT22;53624;0.000;0.000;2022-10-03T18:31:22;19.10;99.90
66710;DHT22;53624;0.000;0.000;2022-10-03T18:33:52;19.10;99.90
66710;DHT22;53624;0.000;0.000;2022-10-03T18:36:23;19.10;99.90
66710;DHT22;53624;0.000;0.000;2022-10-03T18:38:52;19.10;99.90
66710;DHT22;53624;0.000;0.000;2022-10-03T18:41:21;19.10;99.90
66710;DHT22;53624;0.000;0.000;2022-10-03T18:43:50;19.10;99.90
66710;DHT22;53624;0.000;0.000;2022-10-03T18:46:24;19.00;99.90
66710;DHT22;53624;0.000;0.000;2022-10-03T18:48:56;19.00;99.90
66710;DHT22;53624;0.000;0.000;2022-10-03T18:51:29;19.00;99.90
66710;DHT22;53624;0.000;0.000;2022-10-03T18:53:58;19.00;99.90
66710;DHT22;53624;0.000;0.000;2022-10-03T18:56:27;19.00;99.90
66710;DHT22;53624;0.000;0.000;2022-10-03T18:59:01;18.90;99.90
66710;DHT22;53624;0.000;0.000;2022-10-03T19:01:34;19.00;99.90
66710;DHT22;53624;0.000;0.000;2022-10-03T19:04:07;18.90;99.90
66710;DHT22;53624;0.000;0.000;2022-10-03T19:06:39;18.90;99.90
66710;DHT22;53624;0.000;0.000;2022-10-03T19:09:12;18.90;99.90
66710;DHT22;53624;0.000;0.000;2022-10-03T19:11:41;18.90;99.90
66710;DHT22;53624;0.000;0.000;2022-10-03T19:14:12;18.90;99.90
66710;DHT22;53624;0.000;0.000;2022-10-03T19:16:53;18.90;99.90
66710;DHT22;53624;0.000;0.000;2022-10-03T19:19:23;18.90;99.90
66710;DHT22;53624;0.000;0.000;2022-10-03T19:21:53;18.90;99.90